Terminal Aerodrome Forecast
Issued by NWS

Home | Current Version | Previous Version | Text Only | Print | Product List | Glossary On
Versions: 1 2 3 4 5 6 7 8 9 10 11 12 13 14 15 16 17 18
000
FTAK31 PAFA 201937 AAD
TAFATA
TAF AMD
PATA 201937Z 2020/2118 02004KT 3SM BR SCT002 OVC014
     FM202100 10006KT P6SM SCT080
     FM210600 VRB03KT P6SM BKN200=

USA.gov is the U.S. government's official web portal to all federal, state and local government web resources and services.